createdAt,value
2019-03-21T00:16:26.670Z,95830.10
2019-03-21T00:25:08.645Z,95794.13
2019-03-21T00:41:49.674Z,96046.26
2019-03-21T00:45:04.863Z,96008.91
2019-03-21T00:48:32.644Z,95932.91
2019-03-21T00:54:15.616Z,95907.37
2019-03-21T01:15:48.453Z,95818.66
2019-03-21T01:18:50.773Z,95888.22
2019-03-21T01:37:58.135Z,95940.12
2019-03-21T01:41:01.642Z,95900.48
2019-03-21T01:50:08.610Z,95923.41
2019-03-21T01:56:17.403Z,95965.98
2019-03-21T01:59:44.454Z,95909.67
2019-03-21T02:05:50.783Z,95962.86
2019-03-21T02:08:41.545Z,96005.47
2019-03-21T02:11:53.293Z,96023.16
2019-03-21T02:14:52.009Z,96059.53
2019-03-21T02:29:26.694Z,96118.05
2019-03-21T02:32:17.366Z,96131.34
2019-03-21T02:38:48.003Z,96095.11
2019-03-21T02:45:08.982Z,96107.08
2019-03-21T02:54:25.710Z,96115.11
2019-03-21T02:58:17.573Z,96121.67
2019-03-21T03:01:33.705Z,96107.58
2019-03-21T03:10:31.166Z,96141.00
2019-03-21T03:13:02.291Z,96116.73
2019-03-21T03:15:34.081Z,96132.48
2019-03-21T03:18:05.357Z,96141.99
2019-03-21T03:20:36.517Z,96109.71
2019-03-21T03:23:07.781Z,96111.84
2019-03-21T03:25:41.605Z,96116.42
2019-03-21T03:28:20.895Z,96095.11
2019-03-21T03:31:09.684Z,96084.92
2019-03-21T03:33:41.697Z,96101.01
2019-03-21T03:36:13.012Z,96109.53
2019-03-21T03:38:44.209Z,96116.09
2019-03-21T03:41:16.974Z,96101.01
2019-03-21T03:43:50.555Z,96111.52
2019-03-21T03:46:21.632Z,96094.27
2019-03-21T03:48:52.753Z,96089.19
2019-03-21T03:51:26.690Z,96053.47
2019-03-21T03:53:58.675Z,96109.21
2019-03-21T03:56:29.701Z,96104.95
2019-03-21T03:59:07.453Z,96104.95
2019-03-21T04:01:38.576Z,96129.20
2019-03-21T04:04:09.721Z,95998.70
2019-03-21T04:06:42.653Z,96123.95
2019-03-21T04:09:16.791Z,96135.60
2019-03-21T04:11:49.680Z,96142.31
2019-03-21T04:14:20.726Z,96153.78
2019-03-21T04:16:51.782Z,96149.52
2019-03-21T04:19:22.922Z,96165.27
2019-03-21T04:21:56.798Z,96176.09
2019-03-21T04:24:31.310Z,96151.83
2019-03-21T04:27:02.850Z,96138.55
2019-03-21T04:29:38.199Z,96136.91
2019-03-21T04:32:29.876Z,96153.78
2019-03-21T04:35:01.093Z,96156.41
2019-03-21T04:37:32.982Z,96139.37
2019-03-21T04:40:08.787Z,96155.42
2019-03-21T04:42:39.895Z,96157.91
2019-03-21T04:45:17.169Z,96173.47
2019-03-21T04:47:49.709Z,96167.89
2019-03-21T04:50:49.125Z,96162.81
2019-03-21T04:53:04.064Z,96155.42
2019-03-21T04:55:38.974Z,96159.86
2019-03-21T04:58:11.898Z,96155.92
2019-03-21T05:01:02.751Z,96146.08
2019-03-21T05:03:33.960Z,96140.01
2019-03-21T05:06:05.444Z,96088.55
2019-03-21T05:08:53.407Z,96104.63
2019-03-21T05:11:48.960Z,96067.24
2019-03-21T05:14:22.087Z,96065.43
2019-03-21T05:16:54.410Z,96068.06
2019-03-21T05:19:28.502Z,96056.91
2019-03-21T05:21:59.766Z,96035.78
2019-03-21T05:24:51.659Z,96010.13
2019-03-21T05:27:24.930Z,96057.59
2019-03-21T05:29:55.919Z,96068.87
2019-03-21T05:32:29.213Z,96123.31
2019-03-21T05:35:00.467Z,96159.05
2019-03-21T05:37:35.694Z,96210.20
2019-03-21T05:40:08.794Z,96262.70
2019-03-21T05:42:39.919Z,96307.17
2019-03-21T05:45:12.928Z,96375.63
2019-03-21T05:47:46.991Z,96473.19
2019-03-21T05:50:20.271Z,96536.77
2019-03-21T05:52:54.881Z,96525.44
2019-03-21T05:55:26.925Z,96499.31
2019-03-21T05:58:00.955Z,96412.85
2019-03-21T06:00:40.167Z,96475.50
2019-03-21T06:03:38.634Z,96455.78
2019-03-21T21:42:07.534Z,96273.82
2019-03-21T21:45:19.674Z,96261.84
2019-03-21T21:51:27.476Z,96216.92
2019-03-21T22:01:19.486Z,96208.72
2019-03-21T22:03:50.693Z,96131.31
2019-03-21T22:06:21.915Z,96089.70
2019-03-21T22:08:53.213Z,96067.87
2019-03-21T22:11:25.356Z,96073.47
2019-03-21T22:20:42.538Z,96225.27
2019-03-21T22:23:33.600Z,96195.78
2019-03-21T22:27:00.901Z,96233.66
2019-03-21T22:32:42.192Z,96154.92
2019-03-21T22:35:46.680Z,96124.42
2019-03-21T22:41:53.163Z,96090.27
2019-03-21T23:02:12.300Z,96160.16
2019-03-21T23:48:21.722Z,96077.88
2019-03-21T23:50:52.704Z,96122.47
2019-03-21T23:53:25.405Z,96113.95
2019-03-21T23:55:56.435Z,96109.37
2019-03-21T23:58:29.310Z,96099.85
